createdAt,value
2023-04-15T00:00:30.659Z,86.31
2023-04-15T00:00:35.642Z,86.41
2023-04-15T00:00:40.336Z,86.41
2023-04-15T00:00:45.733Z,86.41
2023-04-15T00:00:50.610Z,86.41
2023-04-15T00:00:55.857Z,86.52
2023-04-15T00:01:30.658Z,86.52
2023-04-15T00:01:35.797Z,86.52
2023-04-15T00:01:40.355Z,86.52
2023-04-15T00:01:45.851Z,86.52
2023-04-15T00:01:50.823Z,86.52
2023-04-15T00:01:55.894Z,86.52
2023-04-15T00:02:30.795Z,86.52
2023-04-15T00:02:36.024Z,86.52
2023-04-15T00:02:40.583Z,86.52
2023-04-15T00:02:45.964Z,86.52
2023-04-15T00:02:51.007Z,86.52
2023-04-15T00:02:56.122Z,86.41
2023-04-15T00:03:30.914Z,86.52
2023-04-15T00:03:36.121Z,86.52
2023-04-15T00:03:40.874Z,86.52
2023-04-15T00:03:45.976Z,86.52
2023-04-15T00:03:50.986Z,86.52
2023-04-15T00:03:56.053Z,86.52
2023-04-15T00:04:30.843Z,86.52
2023-04-15T00:04:35.929Z,86.52
2023-04-15T00:04:40.716Z,86.52
2023-04-15T00:04:45.995Z,86.52
2023-04-15T00:04:51.034Z,86.52
2023-04-15T00:04:55.990Z,86.52
2023-04-15T00:05:30.846Z,86.61
2023-04-15T00:05:35.948Z,86.61
2023-04-15T00:05:40.722Z,86.61
2023-04-15T00:05:45.995Z,86.61
2023-04-15T00:05:51.041Z,86.61
2023-04-15T00:05:56.067Z,86.61
2023-04-15T00:06:30.845Z,86.72
2023-04-15T00:06:36.032Z,86.61
2023-04-15T00:06:40.835Z,86.61
2023-04-15T00:06:46.071Z,86.61
2023-04-15T00:06:51.147Z,86.61
2023-04-15T00:06:56.132Z,86.72
2023-04-15T00:07:30.880Z,86.82
2023-04-15T00:07:36.177Z,86.82
2023-04-15T00:07:40.855Z,86.82
2023-04-15T00:07:46.182Z,86.82
2023-04-15T00:07:51.205Z,86.82
2023-04-15T00:07:56.268Z,86.72
2023-04-15T00:08:31.027Z,86.72
2023-04-15T00:08:36.318Z,86.72
2023-04-15T00:08:40.931Z,86.72
2023-04-15T00:08:46.326Z,86.72
2023-04-15T00:08:51.269Z,86.72
2023-04-15T00:08:56.361Z,86.72
2023-04-15T00:09:31.090Z,86.72
2023-04-15T00:09:36.351Z,86.82
2023-04-15T00:09:40.952Z,86.82
2023-04-15T00:09:46.338Z,86.82
2023-04-15T00:09:51.446Z,86.82
2023-04-15T00:09:56.405Z,86.82
2023-04-15T00:10:31.156Z,86.72
2023-04-15T00:10:36.420Z,86.72
2023-04-15T00:10:41.070Z,86.72
2023-04-15T00:10:46.467Z,86.72
2023-04-15T00:10:51.421Z,86.72
2023-04-15T00:10:56.478Z,86.72
2023-04-15T00:11:31.235Z,86.82
2023-04-15T00:11:36.568Z,86.82
2023-04-15T00:11:41.156Z,86.82
2023-04-15T00:11:46.490Z,86.82
2023-04-15T00:11:51.526Z,86.82
2023-04-15T00:11:56.590Z,86.93
2023-04-15T00:12:31.268Z,87.03
2023-04-15T00:12:36.695Z,87.03
2023-04-15T00:12:41.260Z,87.13
2023-04-15T00:12:46.513Z,87.13
2023-04-15T00:12:51.591Z,87.13
2023-04-15T00:12:56.686Z,87.13
2023-04-15T00:13:31.343Z,87.24
2023-04-15T00:13:36.720Z,87.34
2023-04-15T00:13:41.324Z,87.34
2023-04-15T00:13:46.550Z,87.34
2023-04-15T00:13:51.696Z,87.34
2023-04-15T00:13:56.744Z,87.34
2023-04-15T00:14:31.473Z,87.13
2023-04-15T00:14:36.748Z,87.13
2023-04-15T00:14:41.374Z,87.13
2023-04-15T00:14:46.662Z,87.13
2023-04-15T00:14:51.738Z,87.13
2023-04-15T00:14:56.775Z,87.13
2023-04-15T00:15:31.593Z,87.13
2023-04-15T00:15:36.756Z,87.13
2023-04-15T00:15:41.396Z,87.13
2023-04-15T00:15:46.696Z,87.13
2023-04-15T00:15:51.891Z,87.13
2023-04-15T00:15:56.851Z,87.13
2023-04-15T00:16:31.715Z,87.13
2023-04-15T00:16:36.832Z,87.13
2023-04-15T00:16:41.619Z,87.13
2023-04-15T00:16:46.844Z,87.13
2023-04-15T00:16:52.043Z,87.13
2023-04-15T00:16:57.002Z,87.13
2023-04-15T00:17:31.741Z,87.24
2023-04-15T00:17:36.883Z,87.24
2023-04-15T00:17:41.627Z,87.24
2023-04-15T00:17:46.888Z,87.24
2023-04-15T00:17:52.116Z,87.24
2023-04-15T00:17:57.127Z,87.24
2023-04-15T00:18:31.870Z,87.13
2023-04-15T00:18:36.921Z,87.13
2023-04-15T00:18:41.790Z,87.13
2023-04-15T00:18:47.133Z,87.03
2023-04-15T00:18:52.149Z,87.13
2023-04-15T00:18:57.128Z,87.03
2023-04-15T00:19:31.840Z,87.13
2023-04-15T00:19:36.987Z,87.13
2023-04-15T00:19:41.884Z,87.13
2023-04-15T00:19:47.226Z,87.24
2023-04-15T00:19:52.275Z,87.24
2023-04-15T00:19:57.221Z,87.24
2023-04-15T00:20:31.956Z,87.44
2023-04-15T00:20:37.183Z,87.48
2023-04-15T00:20:42.067Z,87.44
2023-04-15T00:20:47.290Z,87.44
2023-04-15T00:20:52.333Z,87.44
2023-04-15T00:20:57.342Z,87.44
2023-04-15T00:21:32.061Z,87.54
2023-04-15T00:21:37.225Z,87.59
2023-04-15T00:21:42.190Z,87.54
2023-04-15T00:21:47.349Z,87.54
2023-04-15T00:21:52.339Z,87.54
2023-04-15T00:21:57.437Z,87.54
2023-04-15T00:22:32.073Z,87.65
2023-04-15T00:22:37.262Z,87.65
2023-04-15T00:22:42.213Z,87.65
2023-04-15T00:22:47.475Z,87.65
2023-04-15T00:22:52.367Z,87.65
2023-04-15T00:22:57.450Z,87.65
2023-04-15T00:23:32.093Z,87.65
2023-04-15T00:23:37.389Z,87.65
2023-04-15T00:23:42.285Z,87.65
2023-04-15T00:23:47.555Z,87.65
2023-04-15T00:23:52.500Z,87.65
2023-04-15T00:23:57.610Z,87.65
2023-04-15T00:24:32.216Z,87.65
2023-04-15T00:24:37.459Z,87.65
2023-04-15T00:24:42.304Z,87.65
2023-04-15T00:24:47.653Z,87.54
2023-04-15T00:24:52.522Z,87.54
2023-04-15T00:24:57.663Z,87.54
2023-04-15T00:25:32.349Z,87.54
2023-04-15T00:25:37.464Z,87.54
2023-04-15T00:25:42.491Z,87.54
2023-04-15T00:25:47.721Z,87.54
2023-04-15T00:25:52.538Z,87.44
2023-04-15T00:25:57.797Z,87.54
2023-04-15T00:26:32.487Z,87.44
2023-04-15T00:26:37.581Z,87.44
2023-04-15T00:26:42.493Z,87.44
2023-04-15T00:26:47.747Z,87.44
2023-04-15T00:26:52.632Z,87.34
2023-04-15T00:26:57.824Z,87.34
2023-04-15T00:27:32.583Z,87.24
2023-04-15T00:27:37.583Z,87.24
2023-04-15T00:27:42.594Z,87.24
2023-04-15T00:27:47.746Z,87.24
2023-04-15T00:27:52.659Z,87.24
2023-04-15T00:27:57.954Z,87.24
2023-04-15T00:28:32.702Z,87.24
2023-04-15T00:28:37.670Z,87.34
2023-04-15T00:28:42.627Z,87.34
2023-04-15T00:28:47.838Z,87.34
2023-04-15T00:28:52.785Z,87.34
2023-04-15T00:28:58.196Z,87.34
2023-04-15T00:29:32.756Z,87.44
2023-04-15T00:29:37.821Z,87.44
2023-04-15T00:29:42.701Z,87.44
2023-04-15T00:29:47.910Z,87.44
2023-04-15T00:29:52.821Z,87.44
2023-04-15T00:29:58.015Z,87.44
2023-04-15T00:30:32.940Z,87.54
2023-04-15T00:30:38.006Z,87.54
2023-04-15T00:30:42.732Z,87.65
2023-04-15T00:30:47.995Z,87.65
2023-04-15T00:30:52.870Z,87.65
2023-04-15T00:30:58.065Z,87.65
2023-04-15T00:31:32.955Z,87.65
2023-04-15T00:31:38.018Z,87.65
2023-04-15T00:31:42.724Z,87.65
2023-04-15T00:31:48.006Z,87.65
2023-04-15T00:31:52.890Z,87.65
2023-04-15T00:31:58.156Z,87.65
2023-04-15T00:32:33.046Z,87.75
2023-04-15T00:32:38.188Z,87.75
2023-04-15T00:32:42.854Z,87.75
2023-04-15T00:32:48.073Z,87.75
2023-04-15T00:32:52.956Z,87.75
2023-04-15T00:32:58.250Z,87.75
2023-04-15T00:33:33.102Z,87.65
2023-04-15T00:33:38.272Z,87.65
2023-04-15T00:33:42.844Z,87.65
2023-04-15T00:33:48.085Z,87.65
2023-04-15T00:33:52.991Z,87.75
2023-04-15T00:33:58.180Z,87.75
2023-04-15T00:34:33.234Z,87.75
2023-04-15T00:34:38.341Z,87.75
2023-04-15T00:34:42.974Z,87.75
2023-04-15T00:34:48.162Z,87.75
2023-04-15T00:34:52.999Z,87.75
2023-04-15T00:34:58.212Z,87.75
2023-04-15T00:35:33.316Z,87.75
2023-04-15T00:35:38.406Z,87.75
2023-04-15T00:35:43.083Z,87.75
2023-04-15T00:35:48.288Z,87.75
2023-04-15T00:35:53.112Z,87.75
2023-04-15T00:35:58.317Z,87.75
2023-04-15T00:36:33.376Z,87.85
2023-04-15T00:36:38.563Z,87.85
2023-04-15T00:36:43.121Z,87.85
2023-04-15T00:36:48.300Z,87.85
2023-04-15T00:36:53.246Z,87.75
2023-04-15T00:36:58.390Z,87.75
2023-04-15T00:37:33.534Z,87.75
2023-04-15T00:37:38.633Z,87.75
2023-04-15T00:37:45.950Z,87.75
2023-04-15T00:37:48.361Z,87.75
2023-04-15T00:37:53.255Z,87.75
2023-04-15T00:37:58.455Z,87.75
2023-04-15T00:38:33.633Z,87.75
2023-04-15T00:38:38.762Z,87.75
2023-04-15T00:38:43.267Z,87.75
2023-04-15T00:38:48.417Z,87.75
2023-04-15T00:38:53.355Z,87.85
2023-04-15T00:38:58.904Z,87.85
2023-04-15T00:39:33.731Z,87.96
2023-04-15T00:39:38.822Z,87.96
2023-04-15T00:39:43.359Z,87.96
2023-04-15T00:39:48.552Z,87.96
2023-04-15T00:39:53.475Z,87.96
2023-04-15T00:39:58.632Z,87.96
2023-04-15T00:40:33.770Z,87.85
2023-04-15T00:40:38.862Z,87.85
2023-04-15T00:40:43.433Z,87.85
2023-04-15T00:40:48.591Z,87.85
2023-04-15T00:40:53.549Z,87.85
2023-04-15T00:40:58.758Z,87.85
2023-04-15T00:41:33.902Z,87.85
2023-04-15T00:41:38.918Z,87.85
2023-04-15T00:41:43.459Z,87.85
2023-04-15T00:41:48.591Z,87.85
2023-04-15T00:41:53.653Z,87.85
2023-04-15T00:41:58.805Z,87.85
2023-04-15T00:42:34.008Z,87.85
2023-04-15T00:42:39.014Z,87.85
2023-04-15T00:42:43.606Z,87.85
2023-04-15T00:42:48.616Z,87.85
2023-04-15T00:42:53.733Z,87.85
2023-04-15T00:42:58.828Z,87.85
2023-04-15T00:43:34.068Z,87.96
2023-04-15T00:43:39.055Z,87.85
2023-04-15T00:43:43.692Z,87.85
2023-04-15T00:43:48.744Z,87.96
2023-04-15T00:43:53.792Z,87.85
2023-04-15T00:43:58.880Z,87.85
2023-04-15T00:44:34.073Z,87.75
2023-04-15T00:44:39.223Z,87.75
2023-04-15T00:44:43.793Z,87.75
2023-04-15T00:44:48.882Z,87.85
2023-04-15T00:44:53.917Z,87.85
2023-04-15T00:44:58.985Z,87.85
2023-04-15T00:45:34.270Z,87.96
2023-04-15T00:45:39.251Z,87.96
2023-04-15T00:45:43.973Z,87.96
2023-04-15T00:45:48.971Z,87.96
2023-04-15T00:45:54.019Z,87.96
2023-04-15T00:45:59.147Z,87.96
2023-04-15T00:46:34.235Z,87.96
2023-04-15T00:46:39.362Z,87.96
2023-04-15T00:46:44.019Z,87.96
2023-04-15T00:46:49.006Z,88.06
2023-04-15T00:46:54.040Z,88.06
2023-04-15T00:46:59.112Z,88.06
2023-04-15T00:47:34.361Z,88.17
2023-04-15T00:47:39.440Z,88.17
2023-04-15T00:47:44.243Z,88.17
2023-04-15T00:47:49.096Z,88.17
2023-04-15T00:47:54.109Z,88.17
2023-04-15T00:47:59.270Z,88.17
2023-04-15T00:48:34.404Z,88.17
2023-04-15T00:48:39.464Z,88.17
2023-04-15T00:48:44.220Z,88.17
2023-04-15T00:48:49.152Z,88.26
2023-04-15T00:48:54.122Z,88.17
2023-04-15T00:48:59.500Z,88.26
2023-04-15T00:49:34.492Z,88.26
2023-04-15T00:49:39.526Z,88.26
2023-04-15T00:49:44.236Z,88.26
2023-04-15T00:49:49.269Z,88.26
2023-04-15T00:49:54.246Z,88.26
2023-04-15T00:49:59.426Z,88.26
2023-04-15T00:50:34.565Z,88.17
2023-04-15T00:50:39.647Z,88.17
2023-04-15T00:50:44.303Z,88.17
2023-04-15T00:50:49.371Z,88.17
2023-04-15T00:50:54.245Z,88.17
2023-04-15T00:50:59.546Z,88.17
2023-04-15T00:51:34.662Z,88.06
2023-04-15T00:51:39.712Z,88.06
2023-04-15T00:51:44.383Z,88.06
2023-04-15T00:51:49.503Z,88.06
2023-04-15T00:51:54.302Z,88.06
2023-04-15T00:51:59.650Z,88.06
2023-04-15T00:52:34.764Z,88.17
2023-04-15T00:52:39.838Z,88.17
2023-04-15T00:52:44.508Z,88.17
2023-04-15T00:52:49.658Z,88.17
2023-04-15T00:52:54.349Z,88.17
2023-04-15T00:52:59.720Z,88.26
2023-04-15T00:53:34.901Z,88.57
2023-04-15T00:53:39.768Z,88.57
2023-04-15T00:53:44.530Z,88.68
2023-04-15T00:53:49.760Z,88.68
2023-04-15T00:53:54.427Z,88.78
2023-04-15T00:53:59.769Z,88.78
2023-04-15T00:54:34.989Z,89.09
2023-04-15T00:54:39.828Z,89.09
2023-04-15T00:54:44.684Z,89.09
2023-04-15T00:54:49.883Z,89.09
2023-04-15T00:54:54.468Z,89.09
2023-04-15T00:54:59.789Z,89.09
2023-04-15T00:55:35.049Z,89.23
2023-04-15T00:55:39.931Z,89.23
2023-04-15T00:55:44.684Z,89.23
2023-04-15T00:55:49.920Z,89.34
2023-04-15T00:55:54.566Z,89.34
2023-04-15T00:55:59.909Z,89.34
2023-04-15T00:56:35.185Z,89.34
2023-04-15T00:56:40.015Z,89.23
2023-04-15T00:56:44.751Z,89.23
2023-04-15T00:56:49.934Z,89.23
2023-04-15T00:56:54.665Z,89.23
2023-04-15T00:56:59.986Z,89.13
2023-04-15T00:57:38.198Z,89.13
2023-04-15T00:57:40.146Z,89.13
2023-04-15T00:57:44.822Z,89.13
2023-04-15T00:57:49.958Z,89.13
2023-04-15T00:57:54.718Z,89.13
2023-04-15T00:58:00.079Z,89.13
2023-04-15T00:58:38.227Z,89.23
2023-04-15T00:58:40.192Z,89.23
2023-04-15T00:58:44.889Z,89.23
2023-04-15T00:58:50.025Z,89.23
2023-04-15T00:58:54.807Z,89.34
2023-04-15T00:59:00.247Z,89.34
2023-04-15T00:59:38.259Z,89.34
2023-04-15T00:59:40.263Z,89.34
2023-04-15T00:59:44.978Z,89.34
2023-04-15T00:59:50.159Z,89.34
2023-04-15T00:59:54.871Z,89.34
2023-04-15T01:00:00.119Z,89.34
2023-04-15T01:00:38.356Z,89.13
2023-04-15T01:00:40.245Z,89.13
2023-04-15T01:00:45.132Z,89.13
2023-04-15T01:00:50.288Z,89.13
2023-04-15T01:00:54.988Z,89.13
2023-04-15T01:01:00.130Z,89.13
2023-04-15T01:01:38.628Z,89.44
2023-04-15T01:01:40.348Z,89.54
2023-04-15T01:01:45.267Z,89.54
2023-04-15T01:01:50.468Z,89.54
2023-04-15T01:01:55.179Z,89.65
2023-04-15T01:02:00.412Z,89.65
2023-04-15T01:02:38.647Z,89.65
2023-04-15T01:02:40.586Z,89.65
2023-04-15T01:02:45.502Z,89.65
2023-04-15T01:02:50.571Z,89.65
2023-04-15T01:02:55.326Z,89.65
2023-04-15T01:03:00.621Z,89.65
2023-04-15T01:03:38.927Z,89.85
2023-04-15T01:03:40.711Z,89.85
2023-04-15T01:03:45.550Z,89.85
2023-04-15T01:03:50.709Z,89.85
2023-04-15T01:03:55.352Z,89.85
2023-04-15T01:04:00.487Z,89.95
2023-04-15T01:04:38.765Z,90.06
2023-04-15T01:04:40.571Z,90.06
2023-04-15T01:04:45.344Z,90.06
2023-04-15T01:04:50.690Z,90.06
2023-04-15T01:04:55.377Z,90.06
2023-04-15T01:05:00.440Z,90.06
2023-04-15T01:05:38.672Z,90.06
2023-04-15T01:05:40.667Z,90.06
2023-04-15T01:05:45.424Z,90.16
2023-04-15T01:05:50.693Z,90.06
2023-04-15T01:05:55.493Z,90.06
2023-04-15T01:06:03.437Z,90.06
2023-04-15T01:06:38.795Z,90.16
2023-04-15T01:06:40.748Z,90.16
2023-04-15T01:06:45.627Z,90.16
2023-04-15T01:06:50.698Z,90.16
2023-04-15T01:06:55.539Z,90.26
2023-04-15T01:07:00.623Z,90.26
2023-04-15T01:07:38.996Z,90.16
2023-04-15T01:07:40.861Z,90.16
2023-04-15T01:07:45.640Z,90.16
2023-04-15T01:07:50.774Z,90.26
2023-04-15T01:07:55.673Z,90.26
2023-04-15T01:08:00.707Z,90.26
2023-04-15T01:08:39.030Z,90.26
2023-04-15T01:08:40.918Z,90.26
2023-04-15T01:08:45.672Z,90.26
2023-04-15T01:08:50.855Z,90.26
2023-04-15T01:08:55.729Z,90.26
2023-04-15T01:09:01.063Z,90.26
2023-04-15T01:09:39.043Z,90.16
2023-04-15T01:09:41.014Z,90.16
2023-04-15T01:09:45.704Z,90.16
2023-04-15T01:09:50.958Z,90.16
2023-04-15T01:09:55.745Z,90.16
2023-04-15T01:10:00.905Z,90.26
2023-04-15T01:10:39.053Z,90.37
2023-04-15T01:10:41.019Z,90.37
2023-04-15T01:10:45.770Z,90.37
2023-04-15T01:10:51.008Z,90.47
2023-04-15T01:10:55.835Z,90.47
2023-04-15T01:11:00.972Z,90.47
2023-04-15T01:11:39.149Z,90.57
2023-04-15T01:11:41.065Z,90.57
2023-04-15T01:11:45.759Z,90.57
2023-04-15T01:11:51.098Z,90.57
2023-04-15T01:11:55.939Z,90.57
2023-04-15T01:12:00.955Z,90.47
2023-04-15T01:12:39.207Z,90.37
2023-04-15T01:12:41.038Z,90.47
2023-04-15T01:12:45.826Z,90.47
2023-04-15T01:12:51.121Z,90.47
2023-04-15T01:12:55.974Z,90.47
2023-04-15T01:13:01.034Z,90.47
2023-04-15T01:13:39.267Z,90.67
2023-04-15T01:13:41.060Z,90.57
2023-04-15T01:13:45.935Z,90.57
2023-04-15T01:13:51.225Z,90.67
2023-04-15T01:13:56.112Z,90.67
2023-04-15T01:14:01.159Z,90.67
2023-04-15T01:14:39.293Z,90.67
2023-04-15T01:14:41.162Z,90.57
2023-04-15T01:14:45.943Z,90.67
2023-04-15T01:14:51.287Z,90.67
2023-04-15T01:14:56.281Z,90.67
2023-04-15T01:15:01.230Z,90.67
2023-04-15T01:15:39.427Z,90.88
2023-04-15T01:15:41.227Z,90.88
2023-04-15T01:15:46.032Z,90.88
2023-04-15T01:15:51.340Z,90.88
2023-04-15T01:15:56.340Z,90.88
2023-04-15T01:16:01.334Z,90.88
2023-04-15T01:16:39.422Z,90.99
2023-04-15T01:16:41.218Z,90.99
2023-04-15T01:16:46.099Z,90.99
2023-04-15T01:16:51.400Z,90.99
2023-04-15T01:16:56.342Z,90.99
2023-04-15T01:17:01.418Z,90.99
2023-04-15T01:17:39.526Z,90.99
2023-04-15T01:17:41.253Z,90.99
2023-04-15T01:17:46.229Z,90.99
2023-04-15T01:17:51.547Z,90.99
2023-04-15T01:17:56.481Z,91.09
2023-04-15T01:18:01.584Z,91.09
2023-04-15T01:18:39.495Z,91.09
2023-04-15T01:18:41.278Z,91.13
2023-04-15T01:18:46.340Z,91.13
2023-04-15T01:18:51.587Z,91.13
2023-04-15T01:18:56.487Z,91.09
2023-04-15T01:19:01.852Z,91.13
2023-04-15T01:19:39.553Z,91.13
2023-04-15T01:19:41.328Z,91.13
2023-04-15T01:19:46.368Z,91.13
2023-04-15T01:19:51.642Z,91.13
2023-04-15T01:19:56.513Z,91.03
2023-04-15T01:20:01.664Z,91.03
2023-04-15T01:20:39.733Z,91.03
2023-04-15T01:20:41.380Z,91.03
2023-04-15T01:20:46.478Z,90.99
2023-04-15T01:20:51.709Z,90.99
2023-04-15T01:20:56.558Z,90.99
2023-04-15T01:21:01.687Z,90.99
2023-04-15T01:21:39.818Z,91.09
2023-04-15T01:21:41.450Z,91.09
2023-04-15T01:21:46.599Z,91.09
2023-04-15T01:21:51.722Z,91.09
2023-04-15T01:21:56.675Z,91.09
2023-04-15T01:22:01.735Z,91.09
2023-04-15T01:22:39.944Z,91.09
2023-04-15T01:22:41.471Z,91.09
2023-04-15T01:22:46.729Z,91.09
2023-04-15T01:22:51.816Z,91.13
2023-04-15T01:22:56.748Z,91.09
2023-04-15T01:23:01.820Z,91.13
2023-04-15T01:23:40.027Z,91.34
2023-04-15T01:23:41.481Z,91.34
2023-04-15T01:23:46.749Z,91.34
2023-04-15T01:23:51.930Z,91.34
2023-04-15T01:23:56.901Z,91.34
2023-04-15T01:24:01.824Z,91.44
2023-04-15T01:24:40.034Z,91.44
2023-04-15T01:24:41.613Z,91.44
2023-04-15T01:24:46.792Z,91.44
2023-04-15T01:24:51.973Z,91.44
2023-04-15T01:24:56.952Z,91.44
2023-04-15T01:25:01.901Z,91.44
2023-04-15T01:25:40.156Z,91.54
2023-04-15T01:25:41.645Z,91.54
2023-04-15T01:25:46.886Z,91.54
2023-04-15T01:25:51.996Z,91.54
2023-04-15T01:25:57.032Z,91.54
2023-04-15T01:26:01.918Z,91.54
2023-04-15T01:26:40.485Z,91.44
2023-04-15T01:26:42.371Z,91.44
2023-04-15T01:26:47.023Z,91.44
2023-04-15T01:26:52.170Z,91.44
2023-04-15T01:26:57.043Z,91.54
2023-04-15T01:27:01.932Z,91.44
2023-04-15T01:27:40.294Z,91.54
2023-04-15T01:27:41.723Z,91.54
2023-04-15T01:27:47.090Z,91.54
2023-04-15T01:27:52.181Z,91.54
2023-04-15T01:27:57.098Z,91.54
2023-04-15T01:28:01.945Z,91.54
2023-04-15T01:28:40.319Z,91.54
2023-04-15T01:28:41.765Z,91.54
2023-04-15T01:28:47.264Z,91.54
2023-04-15T01:28:52.301Z,91.54
2023-04-15T01:28:57.203Z,91.44
2023-04-15T01:29:02.102Z,91.54
2023-04-15T01:29:40.433Z,91.44
2023-04-15T01:29:41.873Z,91.44
2023-04-15T01:29:47.342Z,91.34
2023-04-15T01:29:52.199Z,91.34
2023-04-15T01:29:57.222Z,91.34
2023-04-15T01:30:02.002Z,91.34
2023-04-15T01:30:40.557Z,91.24
2023-04-15T01:30:42.021Z,91.24
2023-04-15T01:30:47.451Z,91.13
2023-04-15T01:30:52.278Z,91.13
2023-04-15T01:30:57.370Z,91.13
2023-04-15T01:31:02.068Z,91.13
2023-04-15T01:31:40.633Z,91.13
2023-04-15T01:31:42.126Z,91.13
2023-04-15T01:31:47.493Z,91.13
2023-04-15T01:31:52.462Z,91.13
2023-04-15T01:31:57.490Z,91.13
2023-04-15T01:32:02.155Z,91.24
2023-04-15T01:32:40.767Z,91.13
2023-04-15T01:32:42.193Z,91.13
2023-04-15T01:32:47.517Z,91.13
2023-04-15T01:32:52.396Z,91.13
2023-04-15T01:32:57.583Z,91.13
2023-04-15T01:33:02.267Z,91.13
2023-04-15T01:33:40.827Z,91.24
2023-04-15T01:33:42.235Z,91.24
2023-04-15T01:33:47.606Z,91.24
2023-04-15T01:33:52.413Z,91.24
2023-04-15T01:33:57.478Z,91.24
2023-04-15T01:34:02.326Z,91.24
2023-04-15T01:34:40.864Z,91.24
2023-04-15T01:34:42.253Z,91.24
2023-04-15T01:34:47.696Z,91.24
2023-04-15T01:34:52.544Z,91.24
2023-04-15T01:34:57.478Z,91.24
2023-04-15T01:35:02.418Z,91.34
2023-04-15T01:35:40.898Z,91.24
2023-04-15T01:35:42.274Z,91.24
2023-04-15T01:35:47.765Z,91.24
2023-04-15T01:35:52.554Z,91.24
2023-04-15T01:35:57.563Z,91.24
2023-04-15T01:36:02.602Z,91.24
2023-04-15T01:36:41.001Z,91.24
2023-04-15T01:36:42.551Z,91.34
2023-04-15T01:36:47.824Z,91.34
2023-04-15T01:36:52.609Z,91.34
2023-04-15T01:36:57.595Z,91.34
2023-04-15T01:37:02.633Z,91.34
2023-04-15T01:37:41.050Z,91.44
2023-04-15T01:37:42.671Z,91.44
2023-04-15T01:37:47.894Z,91.34
2023-04-15T01:37:52.692Z,91.34
2023-04-15T01:37:57.690Z,91.34
2023-04-15T01:38:02.666Z,91.24
2023-04-15T01:38:41.092Z,91.13
2023-04-15T01:38:42.718Z,91.13
2023-04-15T01:38:47.997Z,91.13
2023-04-15T01:38:52.810Z,91.13
2023-04-15T01:38:58.010Z,91.13
2023-04-15T01:39:02.854Z,91.13
2023-04-15T01:39:41.115Z,91.13
2023-04-15T01:39:42.733Z,91.13
2023-04-15T01:39:48.102Z,91.13
2023-04-15T01:39:52.950Z,91.13
2023-04-15T01:39:57.846Z,91.03
2023-04-15T01:40:02.692Z,91.03
2023-04-15T01:40:41.184Z,91.13
2023-04-15T01:40:42.848Z,91.03
2023-04-15T01:40:48.187Z,91.03
2023-04-15T01:40:53.010Z,91.13
2023-04-15T01:40:57.930Z,91.13
2023-04-15T01:41:02.806Z,91.13
2023-04-15T01:41:41.257Z,91.44
2023-04-15T01:41:42.949Z,91.44
2023-04-15T01:41:48.239Z,91.44
2023-04-15T01:41:53.036Z,91.44
2023-04-15T01:41:57.938Z,91.44
2023-04-15T01:42:02.900Z,91.44
2023-04-15T01:42:41.277Z,91.54
2023-04-15T01:42:43.055Z,91.64
2023-04-15T01:42:48.274Z,91.64
2023-04-15T01:42:53.044Z,91.64
2023-04-15T01:42:57.952Z,91.64
2023-04-15T01:43:02.949Z,91.64
2023-04-15T01:43:41.273Z,91.64
2023-04-15T01:43:43.064Z,91.64
2023-04-15T01:43:48.352Z,91.64
2023-04-15T01:43:53.148Z,91.64
2023-04-15T01:43:58.006Z,91.64
2023-04-15T01:44:03.050Z,91.64
2023-04-15T01:44:41.366Z,91.54
2023-04-15T01:44:43.211Z,91.54
2023-04-15T01:44:48.438Z,91.44
2023-04-15T01:44:53.217Z,91.44
2023-04-15T01:44:58.084Z,91.44
2023-04-15T01:45:03.197Z,91.44
2023-04-15T01:45:41.479Z,91.44
2023-04-15T01:45:43.321Z,91.44
2023-04-15T01:45:48.504Z,91.54
2023-04-15T01:45:53.248Z,91.54
2023-04-15T01:45:58.162Z,91.54
2023-04-15T01:46:03.212Z,91.54
2023-04-15T01:46:41.513Z,91.64
2023-04-15T01:46:43.578Z,91.64
2023-04-15T01:46:48.589Z,91.64
2023-04-15T01:46:53.372Z,91.75
2023-04-15T01:46:58.429Z,91.75
2023-04-15T01:47:03.362Z,91.75
2023-04-15T01:47:41.647Z,91.64
2023-04-15T01:47:43.484Z,91.64
2023-04-15T01:47:48.615Z,91.64
2023-04-15T01:47:53.452Z,91.64
2023-04-15T01:47:58.436Z,91.64
2023-04-15T01:48:03.490Z,91.64
2023-04-15T01:48:41.709Z,91.64
2023-04-15T01:48:43.433Z,91.64
2023-04-15T01:48:48.621Z,91.64
2023-04-15T01:48:53.423Z,91.64
2023-04-15T01:48:58.752Z,91.64
2023-04-15T01:49:03.470Z,91.64
2023-04-15T01:49:41.690Z,91.75
2023-04-15T01:49:43.525Z,91.75
2023-04-15T01:49:48.653Z,91.75
2023-04-15T01:49:53.611Z,91.75
2023-04-15T01:49:58.506Z,91.75
2023-04-15T01:50:03.470Z,91.75
2023-04-15T01:50:41.729Z,91.75
2023-04-15T01:50:43.670Z,91.75
2023-04-15T01:50:48.746Z,91.75
2023-04-15T01:50:53.717Z,91.75
2023-04-15T01:50:58.578Z,91.75
2023-04-15T01:51:03.515Z,91.75
2023-04-15T01:51:41.809Z,91.85
2023-04-15T01:51:43.751Z,91.85
2023-04-15T01:51:48.852Z,91.85
2023-04-15T01:51:53.807Z,91.85
2023-04-15T01:51:58.691Z,91.85
2023-04-15T01:52:03.528Z,91.85
2023-04-15T01:52:41.918Z,91.96
2023-04-15T01:52:43.848Z,91.96
2023-04-15T01:52:48.987Z,91.96
2023-04-15T01:52:53.871Z,91.96
2023-04-15T01:52:58.835Z,91.96
2023-04-15T01:53:03.658Z,91.96
2023-04-15T01:53:41.958Z,91.85
2023-04-15T01:53:43.874Z,91.85
2023-04-15T01:53:49.026Z,91.85
2023-04-15T01:53:53.912Z,91.85
2023-04-15T01:53:58.869Z,91.85
2023-04-15T01:54:03.757Z,91.85
2023-04-15T01:54:42.045Z,91.75
2023-04-15T01:54:43.906Z,91.75
2023-04-15T01:54:49.078Z,91.75
2023-04-15T01:54:53.948Z,91.75
2023-04-15T01:54:58.925Z,91.75
2023-04-15T01:55:03.827Z,91.75
2023-04-15T01:55:42.071Z,91.75
2023-04-15T01:55:43.982Z,91.75
2023-04-15T01:55:49.153Z,91.85
2023-04-15T01:55:54.059Z,91.85
2023-04-15T01:55:59.039Z,91.85
2023-04-15T01:56:03.913Z,91.85
2023-04-15T01:56:42.106Z,91.96
2023-04-15T01:56:44.060Z,91.96
2023-04-15T01:56:49.313Z,91.96
2023-04-15T01:56:54.091Z,91.96
2023-04-15T01:56:59.119Z,91.96
2023-04-15T01:57:03.968Z,91.96
2023-04-15T01:57:42.142Z,91.85
2023-04-15T01:57:44.117Z,91.85
2023-04-15T01:57:49.419Z,91.85
2023-04-15T01:57:54.234Z,91.85
2023-04-15T01:57:59.189Z,91.85
2023-04-15T01:58:04.055Z,91.75
2023-04-15T01:58:42.197Z,91.85
2023-04-15T01:58:44.212Z,91.85
2023-04-15T01:58:49.448Z,91.85
2023-04-15T01:58:54.259Z,91.96
2023-04-15T01:58:59.524Z,91.96
2023-04-15T01:59:04.132Z,91.96
2023-04-15T01:59:42.241Z,92.06
2023-04-15T01:59:44.338Z,92.06
2023-04-15T01:59:49.458Z,92.06
2023-04-15T01:59:54.364Z,92.06
2023-04-15T01:59:59.390Z,92.06
2023-04-15T02:00:04.149Z,92.06
2023-04-15T02:00:42.355Z,92.16
2023-04-15T02:00:44.476Z,92.16
2023-04-15T02:00:49.537Z,92.16
2023-04-15T02:00:54.422Z,92.16
2023-04-15T02:00:59.604Z,92.16
2023-04-15T02:01:04.226Z,92.16
2023-04-15T02:01:42.456Z,92.37
2023-04-15T02:01:44.599Z,92.37
2023-04-15T02:01:49.613Z,92.41
2023-04-15T02:01:54.410Z,92.37
2023-04-15T02:01:59.594Z,92.41
2023-04-15T02:02:04.514Z,92.41
2023-04-15T02:02:42.581Z,92.51
2023-04-15T02:02:44.846Z,92.51
2023-04-15T02:02:49.758Z,92.51
2023-04-15T02:02:54.599Z,92.51
2023-04-15T02:02:59.793Z,92.61
2023-04-15T02:03:04.527Z,92.61
2023-04-15T02:03:42.823Z,92.93
2023-04-15T02:03:44.795Z,92.93
2023-04-15T02:03:49.736Z,92.93
2023-04-15T02:03:54.731Z,93.03
2023-04-15T02:03:59.874Z,93.03
2023-04-15T02:04:04.619Z,93.13
2023-04-15T02:04:42.690Z,93.13
2023-04-15T02:04:44.804Z,93.13
2023-04-15T02:04:49.771Z,93.13
2023-04-15T02:04:54.818Z,93.13
2023-04-15T02:04:59.818Z,93.13
2023-04-15T02:05:04.604Z,93.13
2023-04-15T02:05:42.791Z,93.24
2023-04-15T02:05:44.858Z,93.24
2023-04-15T02:05:49.823Z,93.24
2023-04-15T02:05:54.912Z,93.24
2023-04-15T02:05:59.859Z,93.34
2023-04-15T02:06:04.691Z,93.34
2023-04-15T02:06:42.848Z,93.44
2023-04-15T02:06:44.927Z,93.44
2023-04-15T02:06:49.869Z,93.44
2023-04-15T02:06:55.064Z,93.44
2023-04-15T02:06:59.903Z,93.44
2023-04-15T02:07:04.713Z,93.54
2023-04-15T02:07:42.902Z,93.54
2023-04-15T02:07:44.960Z,93.54
2023-04-15T02:07:49.988Z,93.54
2023-04-15T02:07:55.120Z,93.54
2023-04-15T02:07:59.910Z,93.65
2023-04-15T02:08:04.817Z,93.65
2023-04-15T02:08:43.022Z,93.65
2023-04-15T02:08:45.101Z,93.65
2023-04-15T02:08:49.990Z,93.65
2023-04-15T02:08:55.177Z,93.65
2023-04-15T02:09:00.350Z,93.65